ブダペスト の空港の天気 - METARとTAF

ブダペスト/フェリヘギ空港 ( LHBP / BUD ) - ハンガリー ブダペスト
飛行場実況気象(Metar)
観測時間09/22 20:00 CEST (09/22 18:00 UTC)
風向・風速東 3m/s
視程10km以上
天気現象
なし
気温22℃
湿度43%
気圧1014hPa
METARLHBP 221800Z 08005KT CAVOK 22/09 Q1014 NOSIG
過去の天気等 Google飛行場航空写真 Wunderground天気予報

過去48時間のMETAR

飛行場予報(TAF)
発表時間: 9/22 19:15 CEST (9/22 17:15 UTC)
予報対象時間: 22日20時 CEST ~ 23日20時 CEST
風向・風速東 4m/s
視程10km以上
なし
23日2時 CEST ~ 23日12時 CEST に一時的に
風向・風速不定 2m/s
23日12時 CEST ~ 23日14時 CEST に徐々に
風向・風速南 4m/s
23日18時 CEST ~ 23日20時 CEST に一時的に
天気現象弱い雷雨 しゅう雨
少しの積乱雲 雲底高度 1520m
全天の8割程度の雲 雲底高度 2440m
TAF LHBP 221715Z 2218/2318 09007KT CAVOK
TEMPO 2300/2310 VRB03KT
BECMG 2310/2312 17007KT
TEMPO 2316/2318 -TSRA SHRA FEW050CB BKN080